sensor_id;sensor_type;location;lat;lon;timestamp;pressure;altitude;pressure_sealevel;temperature;humidity
29909;BME280;36247;51.952;6.146;2023-01-31T00:00:22;102276.06;;;1.90;100.00
29909;BME280;36247;51.952;6.146;2023-01-31T00:02:47;102269.00;;;2.01;100.00
29909;BME280;36247;51.952;6.146;2023-01-31T00:05:13;102271.94;;;2.06;100.00
29909;BME280;36247;51.952;6.146;2023-01-31T00:07:38;102269.53;;;2.09;100.00
29909;BME280;36247;51.952;6.146;2023-01-31T00:10:04;102271.25;;;2.08;100.00
29909;BME280;36247;51.952;6.146;2023-01-31T00:12:29;102272.00;;;2.19;100.00
29909;BME280;36247;51.952;6.146;2023-01-31T00:14:55;102270.78;;;2.14;100.00
29909;BME280;36247;51.952;6.146;2023-01-31T00:17:20;102275.53;;;2.20;100.00
29909;BME280;36247;51.952;6.146;2023-01-31T00:19:45;102282.88;;;2.25;100.00
29909;BME280;36247;51.952;6.146;2023-01-31T00:22:11;102279.38;;;2.25;100.00
29909;BME280;36247;51.952;6.146;2023-01-31T00:24:36;102271.31;;;2.22;100.00
29909;BME280;36247;51.952;6.146;2023-01-31T00:27:01;102275.75;;;2.23;100.00
29909;BME280;36247;51.952;6.146;2023-01-31T00:29:27;102285.28;;;2.22;100.00
29909;BME280;36247;51.952;6.146;2023-01-31T00:31:52;102280.88;;;2.21;100.00
29909;BME280;36247;51.952;6.146;2023-01-31T00:34:18;102270.63;;;2.24;100.00
29909;BME280;36247;51.952;6.146;2023-01-31T00:36:43;102272.56;;;2.27;100.00
29909;BME280;36247;51.952;6.146;2023-01-31T00:39:09;102272.09;;;2.21;100.00
29909;BME280;36247;51.952;6.146;2023-01-31T00:41:36;102270.75;;;2.26;100.00
29909;BME280;36247;51.952;6.146;2023-01-31T00:44:03;102256.41;;;2.21;100.00
29909;BME280;36247;51.952;6.146;2023-01-31T00:46:29;102261.44;;;2.18;100.00
29909;BME280;36247;51.952;6.146;2023-01-31T00:48:55;102254.63;;;2.20;100.00
29909;BME280;36247;51.952;6.146;2023-01-31T00:51:22;102255.31;;;2.17;100.00
29909;BME280;36247;51.952;6.146;2023-01-31T00:53:49;102245.53;;;2.15;100.00
29909;BME280;36247;51.952;6.146;2023-01-31T00:56:17;102247.25;;;2.14;100.00
29909;BME280;36247;51.952;6.146;2023-01-31T00:58:43;102245.31;;;2.11;100.00
29909;BME280;36247;51.952;6.146;2023-01-31T01:01:14;102252.84;;;2.07;100.00
29909;BME280;36247;51.952;6.146;2023-01-31T01:03:42;102249.22;;;2.05;100.00
29909;BME280;36247;51.952;6.146;2023-01-31T01:06:08;102238.06;;;2.07;100.00
29909;BME280;36247;51.952;6.146;2023-01-31T01:08:35;102235.44;;;2.07;100.00
29909;BME280;36247;51.952;6.146;2023-01-31T01:11:09;102237.63;;;2.01;100.00
29909;BME280;36247;51.952;6.146;2023-01-31T01:13:35;102241.16;;;2.02;100.00
29909;BME280;36247;51.952;6.146;2023-01-31T01:16:10;102240.03;;;1.98;100.00
29909;BME280;36247;51.952;6.146;2023-01-31T01:18:37;102236.50;;;1.98;100.00
29909;BME280;36247;51.952;6.146;2023-01-31T01:21:09;102242.75;;;2.00;100.00
29909;BME280;36247;51.952;6.146;2023-01-31T01:23:36;102233.56;;;1.93;100.00
29909;BME280;36247;51.952;6.146;2023-01-31T01:26:01;102234.03;;;1.87;100.00
29909;BME280;36247;51.952;6.146;2023-01-31T01:28:27;102245.06;;;1.83;100.00
29909;BME280;36247;51.952;6.146;2023-01-31T01:30:53;102239.16;;;1.86;100.00
29909;BME280;36247;51.952;6.146;2023-01-31T01:33:19;102233.81;;;1.84;100.00
29909;BME280;36247;51.952;6.146;2023-01-31T01:35:44;102247.88;;;1.86;100.00
29909;BME280;36247;51.952;6.146;2023-01-31T01:38:10;102247.78;;;1.85;100.00
29909;BME280;36247;51.952;6.146;2023-01-31T01:40:37;102241.09;;;1.88;100.00
29909;BME280;36247;51.952;6.146;2023-01-31T01:43:03;102235.97;;;1.90;100.00
29909;BME280;36247;51.952;6.146;2023-01-31T01:45:29;102233.22;;;2.00;100.00
29909;BME280;36247;51.952;6.146;2023-01-31T01:47:58;102234.78;;;1.98;100.00
29909;BME280;36247;51.952;6.146;2023-01-31T01:50:31;102245.81;;;1.94;100.00
29909;BME280;36247;51.952;6.146;2023-01-31T01:53:03;102247.53;;;1.93;100.00
29909;BME280;36247;51.952;6.146;2023-01-31T01:55:37;102251.31;;;1.85;100.00
29909;BME280;36247;51.952;6.146;2023-01-31T02:00:37;102253.78;;;1.96;100.00
29909;BME280;36247;51.952;6.146;2023-01-31T02:03:05;102247.66;;;1.95;100.00
29909;BME280;36247;51.952;6.146;2023-01-31T02:05:39;102251.75;;;1.91;100.00
29909;BME280;36247;51.952;6.146;2023-01-31T02:08:09;102249.72;;;1.87;100.00
29909;BME280;36247;51.952;6.146;2023-01-31T02:10:43;102251.81;;;1.68;100.00
29909;BME280;36247;51.952;6.146;2023-01-31T02:13:10;102249.88;;;1.53;100.00
29909;BME280;36247;51.952;6.146;2023-01-31T02:15:35;102249.31;;;1.46;100.00
29909;BME280;36247;51.952;6.146;2023-01-31T02:18:01;102245.59;;;1.42;100.00
29909;BME280;36247;51.952;6.146;2023-01-31T02:37:56;102246.53;;;1.91;100.00
29909;BME280;36247;51.952;6.146;2023-01-31T02:43:49;102244.00;;;2.05;100.00
29909;BME280;36247;51.952;6.146;2023-01-31T02:49:40;102233.00;;;2.22;100.00
29909;BME280;36247;51.952;6.146;2023-01-31T02:52:19;102214.00;;;2.25;100.00
29909;BME280;36247;51.952;6.146;2023-01-31T02:55:13;102214.53;;;2.33;100.00
29909;BME280;36247;51.952;6.146;2023-01-31T02:58:01;102205.31;;;2.38;100.00
29909;BME280;36247;51.952;6.146;2023-01-31T03:00:31;102204.72;;;2.42;100.00
29909;BME280;36247;51.952;6.146;2023-01-31T03:02:58;102211.06;;;2.45;100.00
29909;BME280;36247;51.952;6.146;2023-01-31T03:05:23;102209.44;;;2.47;100.00
29909;BME280;36247;51.952;6.146;2023-01-31T03:07:51;102205.34;;;2.51;100.00
29909;BME280;36247;51.952;6.146;2023-01-31T03:13:17;102199.75;;;2.58;100.00
29909;BME280;36247;51.952;6.146;2023-01-31T03:18:40;102178.81;;;2.58;100.00
29909;BME280;36247;51.952;6.146;2023-01-31T03:21:16;102185.25;;;2.63;100.00
29909;BME280;36247;51.952;6.146;2023-01-31T03:23:48;102181.03;;;2.65;100.00
29909;BME280;36247;51.952;6.146;2023-01-31T03:26:16;102174.09;;;2.66;100.00
29909;BME280;36247;51.952;6.146;2023-01-31T03:28:45;102178.59;;;2.69;100.00
29909;BME280;36247;51.952;6.146;2023-01-31T03:31:33;102179.63;;;2.71;100.00
29909;BME280;36247;51.952;6.146;2023-01-31T03:34:05;102192.72;;;2.71;100.00
29909;BME280;36247;51.952;6.146;2023-01-31T03:36:45;102179.03;;;2.75;100.00
29909;BME280;36247;51.952;6.146;2023-01-31T03:40:03;102178.03;;;2.86;100.00
29909;BME280;36247;51.952;6.146;2023-01-31T03:42:56;102186.19;;;2.91;100.00
29909;BME280;36247;51.952;6.146;2023-01-31T03:45:32;102175.94;;;3.07;100.00
29909;BME280;36247;51.952;6.146;2023-01-31T03:48:00;102170.69;;;3.21;100.00
29909;BME280;36247;51.952;6.146;2023-01-31T03:50:36;102178.03;;;3.26;100.00
29909;BME280;36247;51.952;6.146;2023-01-31T03:53:17;102172.22;;;3.30;100.00
29909;BME280;36247;51.952;6.146;2023-01-31T03:55:51;102176.41;;;3.42;100.00
29909;BME280;36247;51.952;6.146;2023-01-31T03:58:20;102175.19;;;3.50;100.00
29909;BME280;36247;51.952;6.146;2023-01-31T04:00:48;102173.56;;;3.52;100.00
29909;BME280;36247;51.952;6.146;2023-01-31T04:03:20;102163.47;;;3.58;100.00
29909;BME280;36247;51.952;6.146;2023-01-31T04:05:48;102168.00;;;3.61;100.00
29909;BME280;36247;51.952;6.146;2023-01-31T04:08:15;102168.00;;;3.61;100.00
29909;BME280;36247;51.952;6.146;2023-01-31T04:10:43;102162.25;;;3.66;100.00
29909;BME280;36247;51.952;6.146;2023-01-31T04:13:09;102157.91;;;3.67;100.00
29909;BME280;36247;51.952;6.146;2023-01-31T04:15:34;102141.28;;;3.66;100.00
29909;BME280;36247;51.952;6.146;2023-01-31T04:18:00;102144.91;;;3.68;100.00
29909;BME280;36247;51.952;6.146;2023-01-31T04:20:25;102148.34;;;3.67;100.00
29909;BME280;36247;51.952;6.146;2023-01-31T04:22:50;102147.34;;;3.65;100.00
29909;BME280;36247;51.952;6.146;2023-01-31T04:25:16;102156.03;;;3.64;100.00
29909;BME280;36247;51.952;6.146;2023-01-31T04:27:41;102149.16;;;3.66;100.00
29909;BME280;36247;51.952;6.146;2023-01-31T04:30:07;102140.50;;;3.67;100.00
29909;BME280;36247;51.952;6.146;2023-01-31T04:32:33;102144.44;;;3.61;100.00
29909;BME280;36247;51.952;6.146;2023-01-31T04:34:58;102131.31;;;3.61;100.00
29909;BME280;36247;51.952;6.146;2023-01-31T04:37:24;102141.09;;;3.63;100.00
29909;BME280;36247;51.952;6.146;2023-01-31T04:39:49;102132.22;;;3.61;100.00
29909;BME280;36247;51.952;6.146;2023-01-31T04:42:14;102119.13;;;3.61;100.00
29909;BME280;36247;51.952;6.146;2023-01-31T04:44:40;102124.59;;;3.64;100.00
29909;BME280;36247;51.952;6.146;2023-01-31T04:47:05;102124.34;;;3.61;100.00
29909;BME280;36247;51.952;6.146;2023-01-31T04:49:31;102126.19;;;3.62;100.00
29909;BME280;36247;51.952;6.146;2023-01-31T04:51:56;102120.84;;;3.61;100.00
29909;BME280;36247;51.952;6.146;2023-01-31T04:54:22;102126.09;;;3.61;100.00
29909;BME280;36247;51.952;6.146;2023-01-31T04:56:47;102119.25;;;3.63;100.00
29909;BME280;36247;51.952;6.146;2023-01-31T04:59:13;102110.25;;;3.59;100.00
29909;BME280;36247;51.952;6.146;2023-01-31T05:01:38;102106.84;;;3.60;100.00
29909;BME280;36247;51.952;6.146;2023-01-31T05:04:06;102100.59;;;3.58;100.00
29909;BME280;36247;51.952;6.146;2023-01-31T05:06:31;102097.88;;;3.57;100.00
29909;BME280;36247;51.952;6.146;2023-01-31T05:08:57;102092.53;;;3.55;100.00
29909;BME280;36247;51.952;6.146;2023-01-31T05:11:26;102095.16;;;3.55;100.00
29909;BME280;36247;51.952;6.146;2023-01-31T05:13:51;102087.28;;;3.55;100.00
29909;BME280;36247;51.952;6.146;2023-01-31T05:16:17;102080.44;;;3.57;100.00
29909;BME280;36247;51.952;6.146;2023-01-31T05:18:42;102073.47;;;3.58;100.00
29909;BME280;36247;51.952;6.146;2023-01-31T05:21:09;102075.22;;;3.57;100.00
29909;BME280;36247;51.952;6.146;2023-01-31T05:23:34;102075.13;;;3.56;100.00
29909;BME280;36247;51.952;6.146;2023-01-31T05:26:00;102068.34;;;3.59;100.00
29909;BME280;36247;51.952;6.146;2023-01-31T05:28:26;102078.81;;;3.59;100.00
29909;BME280;36247;51.952;6.146;2023-01-31T05:30:52;102075.31;;;3.59;100.00
29909;BME280;36247;51.952;6.146;2023-01-31T05:33:18;102078.31;;;3.65;100.00
29909;BME280;36247;51.952;6.146;2023-01-31T05:35:47;102073.75;;;3.62;100.00
29909;BME280;36247;51.952;6.146;2023-01-31T05:38:12;102079.81;;;3.61;100.00
29909;BME280;36247;51.952;6.146;2023-01-31T05:40:38;102081.91;;;3.67;100.00
29909;BME280;36247;51.952;6.146;2023-01-31T05:43:03;102082.84;;;3.67;100.00
29909;BME280;36247;51.952;6.146;2023-01-31T05:45:29;102074.88;;;3.66;100.00
29909;BME280;36247;51.952;6.146;2023-01-31T05:47:55;102067.91;;;3.66;100.00
29909;BME280;36247;51.952;6.146;2023-01-31T05:50:21;102067.19;;;3.69;100.00
29909;BME280;36247;51.952;6.146;2023-01-31T05:52:54;102063.75;;;3.70;100.00
29909;BME280;36247;51.952;6.146;2023-01-31T05:55:20;102052.38;;;3.69;100.00
29909;BME280;36247;51.952;6.146;2023-01-31T05:57:46;102052.19;;;3.66;100.00
29909;BME280;36247;51.952;6.146;2023-01-31T06:00:12;102035.66;;;3.67;100.00
29909;BME280;36247;51.952;6.146;2023-01-31T06:02:39;102043.53;;;3.67;100.00
29909;BME280;36247;51.952;6.146;2023-01-31T06:05:06;102037.53;;;3.70;100.00
29909;BME280;36247;51.952;6.146;2023-01-31T06:07:31;102057.63;;;3.69;100.00
29909;BME280;36247;51.952;6.146;2023-01-31T06:09:57;102043.63;;;3.69;100.00
29909;BME280;36247;51.952;6.146;2023-01-31T06:12:22;102041.88;;;3.69;100.00
29909;BME280;36247;51.952;6.146;2023-01-31T06:14:47;102048.03;;;3.70;100.00
29909;BME280;36247;51.952;6.146;2023-01-31T06:17:13;102044.59;;;3.71;100.00
29909;BME280;36247;51.952;6.146;2023-01-31T06:19:38;102048.13;;;3.71;100.00
29909;BME280;36247;51.952;6.146;2023-01-31T06:22:04;102032.28;;;3.70;100.00
29909;BME280;36247;51.952;6.146;2023-01-31T06:24:30;102027.97;;;3.70;100.00
29909;BME280;36247;51.952;6.146;2023-01-31T06:26:55;102021.00;;;3.71;100.00
29909;BME280;36247;51.952;6.146;2023-01-31T06:29:21;102021.72;;;3.68;100.00
29909;BME280;36247;51.952;6.146;2023-01-31T06:31:46;102025.19;;;3.67;100.00
29909;BME280;36247;51.952;6.146;2023-01-31T06:34:11;102029.59;;;3.68;100.00
29909;BME280;36247;51.952;6.146;2023-01-31T06:36:37;102035.66;;;3.67;100.00
29909;BME280;36247;51.952;6.146;2023-01-31T06:39:02;102027.78;;;3.67;100.00
29909;BME280;36247;51.952;6.146;2023-01-31T06:41:28;102019.84;;;3.66;100.00
29909;BME280;36247;51.952;6.146;2023-01-31T06:43:54;102021.25;;;3.61;100.00
29909;BME280;36247;51.952;6.146;2023-01-31T06:46:19;102020.38;;;3.60;100.00
29909;BME280;36247;51.952;6.146;2023-01-31T06:48:45;102014.19;;;3.60;100.00
29909;BME280;36247;51.952;6.146;2023-01-31T06:51:13;102013.31;;;3.59;100.00
29909;BME280;36247;51.952;6.146;2023-01-31T06:53:38;102010.88;;;3.62;100.00
29909;BME280;36247;51.952;6.146;2023-01-31T06:56:04;102021.34;;;3.62;100.00
29909;BME280;36247;51.952;6.146;2023-01-31T06:58:30;102023.34;;;3.66;100.00
29909;BME280;36247;51.952;6.146;2023-01-31T07:00:55;102027.06;;;3.70;100.00
29909;BME280;36247;51.952;6.146;2023-01-31T07:03:20;102021.81;;;3.70;100.00
29909;BME280;36247;51.952;6.146;2023-01-31T07:05:46;102025.28;;;3.69;100.00
29909;BME280;36247;51.952;6.146;2023-01-31T07:08:13;102018.31;;;3.69;100.00
29909;BME280;36247;51.952;6.146;2023-01-31T07:10:38;102011.50;;;3.73;100.00
29909;BME280;36247;51.952;6.146;2023-01-31T07:13:04;102008.97;;;3.75;100.00
29909;BME280;36247;51.952;6.146;2023-01-31T07:15:29;102016.03;;;3.76;100.00
29909;BME280;36247;51.952;6.146;2023-01-31T07:17:58;102011.91;;;3.79;100.00
29909;BME280;36247;51.952;6.146;2023-01-31T07:20:24;102011.91;;;3.79;100.00
29909;BME280;36247;51.952;6.146;2023-01-31T07:22:56;102013.69;;;3.80;100.00
29909;BME280;36247;51.952;6.146;2023-01-31T07:25:23;102004.84;;;3.78;100.00
29909;BME280;36247;51.952;6.146;2023-01-31T07:27:48;102005.91;;;3.82;100.00
29909;BME280;36247;51.952;6.146;2023-01-31T07:30:14;102014.16;;;3.88;100.00
29909;BME280;36247;51.952;6.146;2023-01-31T07:32:39;102015.78;;;3.86;100.00
29909;BME280;36247;51.952;6.146;2023-01-31T07:35:05;102023.84;;;3.89;100.00
29909;BME280;36247;51.952;6.146;2023-01-31T07:37:31;102011.53;;;3.88;100.00
29909;BME280;36247;51.952;6.146;2023-01-31T07:39:56;102008.47;;;3.95;100.00
29909;BME280;36247;51.952;6.146;2023-01-31T07:42:22;102008.13;;;4.04;100.00
29909;BME280;36247;51.952;6.146;2023-01-31T07:44:47;102010.81;;;4.05;100.00
29909;BME280;36247;51.952;6.146;2023-01-31T07:47:13;102003.75;;;4.04;100.00
29909;BME280;36247;51.952;6.146;2023-01-31T07:49:38;102000.16;;;4.02;100.00
29909;BME280;36247;51.952;6.146;2023-01-31T07:52:03;101993.19;;;4.03;100.00
29909;BME280;36247;51.952;6.146;2023-01-31T07:54:29;101990.75;;;4.06;100.00
29909;BME280;36247;51.952;6.146;2023-01-31T07:56:54;101980.25;;;4.06;100.00
29909;BME280;36247;51.952;6.146;2023-01-31T07:59:19;101986.59;;;4.10;100.00
29909;BME280;36247;51.952;6.146;2023-01-31T08:01:45;101988.78;;;4.17;100.00
29909;BME280;36247;51.952;6.146;2023-01-31T08:04:29;101982.97;;;4.22;100.00
29909;BME280;36247;51.952;6.146;2023-01-31T08:06:54;101979.59;;;4.25;100.00
29909;BME280;36247;51.952;6.146;2023-01-31T08:09:21;101980.63;;;4.27;100.00
29909;BME280;36247;51.952;6.146;2023-01-31T08:11:47;101978.09;;;4.29;100.00
29909;BME280;36247;51.952;6.146;2023-01-31T08:14:12;101973.72;;;4.29;100.00
29909;BME280;36247;51.952;6.146;2023-01-31T08:16:37;101966.84;;;4.31;100.00
29909;BME280;36247;51.952;6.146;2023-01-31T08:19:04;101971.28;;;4.32;100.00
29909;BME280;36247;51.952;6.146;2023-01-31T08:21:29;101979.31;;;4.35;100.00
29909;BME280;36247;51.952;6.146;2023-01-31T08:23:55;101968.03;;;4.36;100.00
29909;BME280;36247;51.952;6.146;2023-01-31T08:26:21;101959.34;;;4.37;100.00
29909;BME280;36247;51.952;6.146;2023-01-31T08:28:48;101967.94;;;4.35;100.00
29909;BME280;36247;51.952;6.146;2023-01-31T08:31:16;101970.03;;;4.40;100.00
29909;BME280;36247;51.952;6.146;2023-01-31T08:33:42;101950.00;;;4.43;100.00
29909;BME280;36247;51.952;6.146;2023-01-31T08:38:44;101936.25;;;4.47;100.00
29909;BME280;36247;51.952;6.146;2023-01-31T08:41:11;101923.28;;;4.50;100.00
29909;BME280;36247;51.952;6.146;2023-01-31T08:43:36;101920.47;;;4.62;100.00
29909;BME280;36247;51.952;6.146;2023-01-31T08:46:03;101924.94;;;4.64;100.00
29909;BME280;36247;51.952;6.146;2023-01-31T08:48:31;101924.22;;;4.67;100.00
29909;BME280;36247;51.952;6.146;2023-01-31T08:51:02;101929.72;;;4.71;100.00
29909;BME280;36247;51.952;6.146;2023-01-31T08:53:28;101932.50;;;4.74;100.00
29909;BME280;36247;51.952;6.146;2023-01-31T08:55:58;101921.94;;;4.73;100.00
29909;BME280;36247;51.952;6.146;2023-01-31T08:58:24;101918.59;;;4.75;100.00
29909;BME280;36247;51.952;6.146;2023-01-31T09:00:49;101924.88;;;4.79;100.00
29909;BME280;36247;51.952;6.146;2023-01-31T09:03:15;101930.22;;;4.81;100.00
29909;BME280;36247;51.952;6.146;2023-01-31T09:05:43;101916.28;;;4.82;100.00
29909;BME280;36247;51.952;6.146;2023-01-31T09:08:10;101910.22;;;4.83;100.00
29909;BME280;36247;51.952;6.146;2023-01-31T09:10:35;101899.88;;;4.86;100.00
29909;BME280;36247;51.952;6.146;2023-01-31T09:13:01;101906.28;;;4.91;100.00
29909;BME280;36247;51.952;6.146;2023-01-31T09:15:26;101918.34;;;4.87;100.00
29909;BME280;36247;51.952;6.146;2023-01-31T09:17:52;101908.72;;;4.88;100.00
29909;BME280;36247;51.952;6.146;2023-01-31T09:20:18;101921.06;;;4.89;100.00
29909;BME280;36247;51.952;6.146;2023-01-31T09:22:43;101903.81;;;4.94;100.00
29909;BME280;36247;51.952;6.146;2023-01-31T09:25:09;101899.72;;;4.99;100.00
29909;BME280;36247;51.952;6.146;2023-01-31T09:27:36;101911.88;;;4.97;100.00
29909;BME280;36247;51.952;6.146;2023-01-31T09:30:04;101899.81;;;5.01;100.00
29909;BME280;36247;51.952;6.146;2023-01-31T09:32:30;101903.25;;;5.00;100.00
29909;BME280;36247;51.952;6.146;2023-01-31T09:34:57;101903.50;;;5.04;100.00
29909;BME280;36247;51.952;6.146;2023-01-31T09:37:22;101900.22;;;5.08;100.00
29909;BME280;36247;51.952;6.146;2023-01-31T09:39:48;101893.31;;;5.10;100.00
29909;BME280;36247;51.952;6.146;2023-01-31T09:42:27;101897.75;;;5.11;100.00
29909;BME280;36247;51.952;6.146;2023-01-31T09:45:11;101903.91;;;5.12;100.00
29909;BME280;36247;51.952;6.146;2023-01-31T09:47:52;101905.13;;;5.19;100.00
29909;BME280;36247;51.952;6.146;2023-01-31T09:52:56;101900.53;;;5.15;100.00
29909;BME280;36247;51.952;6.146;2023-01-31T09:55:43;101901.38;;;5.14;100.00
29909;BME280;36247;51.952;6.146;2023-01-31T10:00:55;101908.72;;;5.21;100.00
29909;BME280;36247;51.952;6.146;2023-01-31T10:06:44;101907.34;;;5.11;100.00
29909;BME280;36247;51.952;6.146;2023-01-31T10:09:24;101907.28;;;5.09;100.00
29909;BME280;36247;51.952;6.146;2023-01-31T10:12:00;101891.59;;;5.11;100.00
29909;BME280;36247;51.952;6.146;2023-01-31T10:14:50;101886.19;;;5.08;100.00
29909;BME280;36247;51.952;6.146;2023-01-31T10:17:18;101889.69;;;5.08;100.00
29909;BME280;36247;51.952;6.146;2023-01-31T10:20:02;101899.31;;;5.08;100.00
29909;BME280;36247;51.952;6.146;2023-01-31T10:22:42;101887.25;;;5.11;100.00
29909;BME280;36247;51.952;6.146;2023-01-31T10:25:25;101884.78;;;5.15;100.00
29909;BME280;36247;51.952;6.146;2023-01-31T10:28:05;101887.63;;;5.19;100.00
29909;BME280;36247;51.952;6.146;2023-01-31T10:30:43;101866.47;;;5.16;100.00
29909;BME280;36247;51.952;6.146;2023-01-31T10:33:48;101871.88;;;5.19;100.00
29909;BME280;36247;51.952;6.146;2023-01-31T10:36:39;101858.81;;;5.21;100.00
29909;BME280;36247;51.952;6.146;2023-01-31T10:39:49;101854.56;;;5.23;100.00
29909;BME280;36247;51.952;6.146;2023-01-31T10:42:17;101868.81;;;5.28;100.00
29909;BME280;36247;51.952;6.146;2023-01-31T10:44:50;101869.91;;;5.32;100.00
29909;BME280;36247;51.952;6.146;2023-01-31T10:47:19;101864.31;;;5.25;100.00
29909;BME280;36247;51.952;6.146;2023-01-31T10:49:49;101866.94;;;5.25;100.00
29909;BME280;36247;51.952;6.146;2023-01-31T10:52:44;101870.56;;;5.27;100.00
29909;BME280;36247;51.952;6.146;2023-01-31T10:58:12;101851.75;;;5.36;100.00
29909;BME280;36247;51.952;6.146;2023-01-31T11:00:39;101853.22;;;5.31;100.00
29909;BME280;36247;51.952;6.146;2023-01-31T11:03:04;101848.88;;;5.32;100.00
29909;BME280;36247;51.952;6.146;2023-01-31T11:05:30;101840.31;;;5.36;100.00
29909;BME280;36247;51.952;6.146;2023-01-31T11:08:00;101835.22;;;5.39;100.00
29909;BME280;36247;51.952;6.146;2023-01-31T11:10:29;101839.72;;;5.41;100.00
29909;BME280;36247;51.952;6.146;2023-01-31T11:12:58;101841.53;;;5.42;100.00
29909;BME280;36247;51.952;6.146;2023-01-31T11:15:28;101844.91;;;5.40;100.00
29909;BME280;36247;51.952;6.146;2023-01-31T11:17:59;101834.47;;;5.41;100.00
29909;BME280;36247;51.952;6.146;2023-01-31T11:20:34;101831.94;;;5.43;100.00
29909;BME280;36247;51.952;6.146;2023-01-31T11:23:02;101850.47;;;5.46;100.00
29909;BME280;36247;51.952;6.146;2023-01-31T11:25:30;101832.16;;;5.47;100.00
29909;BME280;36247;51.952;6.146;2023-01-31T11:27:58;101837.56;;;5.51;100.00
29909;BME280;36247;51.952;6.146;2023-01-31T11:30:34;101840.19;;;5.51;100.00
29909;BME280;36247;51.952;6.146;2023-01-31T11:33:00;101840.13;;;5.49;100.00
29909;BME280;36247;51.952;6.146;2023-01-31T11:35:30;101839.38;;;5.52;100.00
29909;BME280;36247;51.952;6.146;2023-01-31T11:38:02;101837.47;;;5.49;100.00
29909;BME280;36247;51.952;6.146;2023-01-31T11:43:03;101831.56;;;5.53;100.00
29909;BME280;36247;51.952;6.146;2023-01-31T11:45:31;101800.19;;;5.56;100.00
29909;BME280;36247;51.952;6.146;2023-01-31T11:48:05;101800.25;;;5.58;100.00
29909;BME280;36247;51.952;6.146;2023-01-31T11:50:37;101810.75;;;5.58;100.00
29909;BME280;36247;51.952;6.146;2023-01-31T11:55:39;101786.28;;;5.59;100.00
29909;BME280;36247;51.952;6.146;2023-01-31T11:58:35;101786.59;;;5.65;100.00
29909;BME280;36247;51.952;6.146;2023-01-31T12:03:36;101788.56;;;5.69;100.00
29909;BME280;36247;51.952;6.146;2023-01-31T12:06:07;101779.06;;;5.73;100.00
29909;BME280;36247;51.952;6.146;2023-01-31T12:08:41;101786.88;;;5.71;100.00
29909;BME280;36247;51.952;6.146;2023-01-31T12:13:49;101793.97;;;5.72;100.00
29909;BME280;36247;51.952;6.146;2023-01-31T12:16:19;101783.59;;;5.75;100.00
29909;BME280;36247;51.952;6.146;2023-01-31T12:24:17;101788.19;;;5.79;100.00
29909;BME280;36247;51.952;6.146;2023-01-31T12:26:58;101787.31;;;5.80;100.00
29909;BME280;36247;51.952;6.146;2023-01-31T12:49:16;101788.47;;;5.86;100.00
29909;BME280;36247;51.952;6.146;2023-01-31T12:59:50;101778.16;;;5.90;100.00
29909;BME280;36247;51.952;6.146;2023-01-31T13:02:44;101785.09;;;5.88;100.00
29909;BME280;36247;51.952;6.146;2023-01-31T13:05:26;101774.72;;;5.91;100.00
29909;BME280;36247;51.952;6.146;2023-01-31T13:08:01;101776.50;;;5.92;100.00
29909;BME280;36247;51.952;6.146;2023-01-31T13:10:42;101781.81;;;5.94;100.00
29909;BME280;36247;51.952;6.146;2023-01-31T13:13:18;101773.94;;;5.94;100.00
29909;BME280;36247;51.952;6.146;2023-01-31T13:15:49;101759.97;;;5.95;100.00
29909;BME280;36247;51.952;6.146;2023-01-31T13:18:17;101767.22;;;5.99;100.00
29909;BME280;36247;51.952;6.146;2023-01-31T13:21:05;101759.41;;;6.00;100.00
29909;BME280;36247;51.952;6.146;2023-01-31T13:23:41;101762.16;;;6.04;100.00
29909;BME280;36247;51.952;6.146;2023-01-31T13:26:24;101770.13;;;6.05;100.00
29909;BME280;36247;51.952;6.146;2023-01-31T13:31:47;101750.41;;;6.15;100.00
29909;BME280;36247;51.952;6.146;2023-01-31T13:34:22;101755.72;;;6.16;100.00
29909;BME280;36247;51.952;6.146;2023-01-31T13:36:53;101751.53;;;6.20;100.00
29909;BME280;36247;51.952;6.146;2023-01-31T13:39:27;101742.97;;;6.24;100.00
29909;BME280;36247;51.952;6.146;2023-01-31T13:41:56;101748.34;;;6.27;100.00
29909;BME280;36247;51.952;6.146;2023-01-31T13:44:21;101735.19;;;6.27;100.00
29909;BME280;36247;51.952;6.146;2023-01-31T13:47:02;101734.41;;;6.30;100.00
29909;BME280;36247;51.952;6.146;2023-01-31T13:49:36;101749.53;;;6.34;100.00
29909;BME280;36247;51.952;6.146;2023-01-31T13:52:11;101749.53;;;6.34;100.00
29909;BME280;36247;51.952;6.146;2023-01-31T13:54:43;101753.16;;;6.36;100.00
29909;BME280;36247;51.952;6.146;2023-01-31T13:59:52;101757.75;;;6.42;100.00
29909;BME280;36247;51.952;6.146;2023-01-31T14:02:19;101764.03;;;6.44;100.00
29909;BME280;36247;51.952;6.146;2023-01-31T14:04:45;101757.97;;;6.46;100.00
29909;BME280;36247;51.952;6.146;2023-01-31T14:14:52;101759.22;;;6.55;100.00
29909;BME280;36247;51.952;6.146;2023-01-31T14:22:25;101744.19;;;6.71;100.00
29909;BME280;36247;51.952;6.146;2023-01-31T14:27:38;101775.91;;;6.75;100.00
29909;BME280;36247;51.952;6.146;2023-01-31T14:32:46;101763.47;;;6.70;100.00
29909;BME280;36247;51.952;6.146;2023-01-31T14:57:16;101794.41;;;6.96;100.00
29909;BME280;36247;51.952;6.146;2023-01-31T15:00:14;101795.38;;;6.98;100.00
29909;BME280;36247;51.952;6.146;2023-01-31T15:03:00;101809.50;;;7.00;100.00
29909;BME280;36247;51.952;6.146;2023-01-31T15:11:00;101813.94;;;7.01;100.00
29909;BME280;36247;51.952;6.146;2023-01-31T15:13:39;101803.53;;;7.04;100.00
29909;BME280;36247;51.952;6.146;2023-01-31T15:18:45;101816.78;;;7.05;100.00
29909;BME280;36247;51.952;6.146;2023-01-31T15:21:19;101813.19;;;7.03;100.00
29909;BME280;36247;51.952;6.146;2023-01-31T15:23:47;101816.66;;;7.02;100.00
29909;BME280;36247;51.952;6.146;2023-01-31T15:26:14;101805.44;;;7.06;100.00